sensor_id;sensor_type;location;lat;lon;timestamp;P1;durP1;ratioP1;P2;durP2;ratioP2
35110;SDS011;21290;50.158;8.658;2023-08-20T00:01:17;6.88;;;5.18;;
35110;SDS011;21290;50.158;8.658;2023-08-20T00:03:50;13.38;;;5.13;;
35110;SDS011;21290;50.158;8.658;2023-08-20T00:06:18;5.57;;;4.50;;
35110;SDS011;21290;50.158;8.658;2023-08-20T00:08:46;6.85;;;5.07;;
35110;SDS011;21290;50.158;8.658;2023-08-20T00:11:13;8.57;;;5.70;;
35110;SDS011;21290;50.158;8.658;2023-08-20T00:13:40;9.68;;;5.57;;
35110;SDS011;21290;50.158;8.658;2023-08-20T00:16:07;7.70;;;5.15;;
35110;SDS011;21290;50.158;8.658;2023-08-20T00:18:35;6.72;;;5.30;;
35110;SDS011;21290;50.158;8.658;2023-08-20T00:23:31;10.48;;;5.82;;
35110;SDS011;21290;50.158;8.658;2023-08-20T00:25:58;6.30;;;5.28;;
35110;SDS011;21290;50.158;8.658;2023-08-20T00:28:25;9.30;;;5.35;;
35110;SDS011;21290;50.158;8.658;2023-08-20T00:30:52;6.70;;;5.30;;
35110;SDS011;21290;50.158;8.658;2023-08-20T00:33:18;12.68;;;5.35;;
35110;SDS011;21290;50.158;8.658;2023-08-20T00:35:45;8.30;;;4.95;;
35110;SDS011;21290;50.158;8.658;2023-08-20T00:38:12;12.70;;;5.65;;
35110;SDS011;21290;50.158;8.658;2023-08-20T00:40:38;11.75;;;5.80;;
35110;SDS011;21290;50.158;8.658;2023-08-20T00:43:05;11.20;;;5.82;;
35110;SDS011;21290;50.158;8.658;2023-08-20T00:45:32;8.63;;;5.50;;
35110;SDS011;21290;50.158;8.658;2023-08-20T00:48:00;10.35;;;5.88;;
35110;SDS011;21290;50.158;8.658;2023-08-20T00:50:27;10.43;;;6.10;;
35110;SDS011;21290;50.158;8.658;2023-08-20T00:52:54;9.70;;;6.20;;
35110;SDS011;21290;50.158;8.658;2023-08-20T00:55:20;8.07;;;6.20;;
35110;SDS011;21290;50.158;8.658;2023-08-20T00:57:47;9.23;;;5.43;;
35110;SDS011;21290;50.158;8.658;2023-08-20T01:00:14;11.02;;;6.35;;
35110;SDS011;21290;50.158;8.658;2023-08-20T01:02:42;8.82;;;6.10;;
35110;SDS011;21290;50.158;8.658;2023-08-20T01:05:13;7.90;;;5.68;;
35110;SDS011;21290;50.158;8.658;2023-08-20T01:10:43;9.02;;;6.75;;
35110;SDS011;21290;50.158;8.658;2023-08-20T01:13:32;8.85;;;6.63;;
35110;SDS011;21290;50.158;8.658;2023-08-20T01:15:59;6.72;;;6.00;;
35110;SDS011;21290;50.158;8.658;2023-08-20T01:18:25;11.00;;;6.68;;
35110;SDS011;21290;50.158;8.658;2023-08-20T01:20:55;7.65;;;6.47;;
35110;SDS011;21290;50.158;8.658;2023-08-20T01:23:36;8.45;;;6.63;;
35110;SDS011;21290;50.158;8.658;2023-08-20T01:26:15;8.07;;;6.57;;
35110;SDS011;21290;50.158;8.658;2023-08-20T01:28:58;11.57;;;6.45;;
35110;SDS011;21290;50.158;8.658;2023-08-20T01:31:25;8.05;;;7.00;;
35110;SDS011;21290;50.158;8.658;2023-08-20T01:33:53;15.27;;;6.60;;
35110;SDS011;21290;50.158;8.658;2023-08-20T01:36:23;11.40;;;6.68;;
35110;SDS011;21290;50.158;8.658;2023-08-20T01:38:50;13.95;;;6.28;;
35110;SDS011;21290;50.158;8.658;2023-08-20T01:41:17;11.95;;;7.22;;
35110;SDS011;21290;50.158;8.658;2023-08-20T01:43:44;14.82;;;6.55;;
35110;SDS011;21290;50.158;8.658;2023-08-20T01:46:10;10.52;;;7.03;;
35110;SDS011;21290;50.158;8.658;2023-08-20T01:48:38;9.85;;;7.18;;
35110;SDS011;21290;50.158;8.658;2023-08-20T01:51:05;10.00;;;6.90;;
35110;SDS011;21290;50.158;8.658;2023-08-20T01:53:32;8.13;;;7.07;;
35110;SDS011;21290;50.158;8.658;2023-08-20T01:55:58;10.85;;;6.90;;
35110;SDS011;21290;50.158;8.658;2023-08-20T01:58:25;10.18;;;7.47;;
35110;SDS011;21290;50.158;8.658;2023-08-20T02:00:52;9.30;;;7.50;;
35110;SDS011;21290;50.158;8.658;2023-08-20T02:03:19;11.95;;;7.45;;
35110;SDS011;21290;50.158;8.658;2023-08-20T02:05:45;15.45;;;8.15;;
35110;SDS011;21290;50.158;8.658;2023-08-20T02:08:12;11.32;;;7.75;;
35110;SDS011;21290;50.158;8.658;2023-08-20T02:10:38;9.25;;;7.45;;
35110;SDS011;21290;50.158;8.658;2023-08-20T02:13:05;12.05;;;6.85;;
35110;SDS011;21290;50.158;8.658;2023-08-20T02:15:33;10.65;;;6.90;;
35110;SDS011;21290;50.158;8.658;2023-08-20T02:18:00;10.88;;;7.00;;
35110;SDS011;21290;50.158;8.658;2023-08-20T02:20:27;14.60;;;7.38;;
35110;SDS011;21290;50.158;8.658;2023-08-20T02:22:54;9.38;;;6.82;;
35110;SDS011;21290;50.158;8.658;2023-08-20T02:25:21;10.18;;;7.82;;
35110;SDS011;21290;50.158;8.658;2023-08-20T02:27:48;10.20;;;7.18;;
35110;SDS011;21290;50.158;8.658;2023-08-20T02:30:15;13.43;;;8.10;;
35110;SDS011;21290;50.158;8.658;2023-08-20T02:32:42;9.70;;;8.00;;
35110;SDS011;21290;50.158;8.658;2023-08-20T02:35:08;13.10;;;7.70;;
35110;SDS011;21290;50.158;8.658;2023-08-20T02:37:35;9.18;;;7.50;;
35110;SDS011;21290;50.158;8.658;2023-08-20T02:40:03;11.73;;;7.63;;
35110;SDS011;21290;50.158;8.658;2023-08-20T02:42:30;15.70;;;7.85;;
35110;SDS011;21290;50.158;8.658;2023-08-20T02:44:57;13.02;;;8.02;;
35110;SDS011;21290;50.158;8.658;2023-08-20T02:47:24;8.93;;;7.25;;
35110;SDS011;21290;50.158;8.658;2023-08-20T02:49:50;11.32;;;7.88;;
35110;SDS011;21290;50.158;8.658;2023-08-20T02:52:17;10.50;;;7.43;;
35110;SDS011;21290;50.158;8.658;2023-08-20T02:54:44;12.80;;;7.45;;
35110;SDS011;21290;50.158;8.658;2023-08-20T02:57:10;12.63;;;8.35;;
35110;SDS011;21290;50.158;8.658;2023-08-20T02:59:37;11.40;;;8.20;;
35110;SDS011;21290;50.158;8.658;2023-08-20T03:02:04;11.80;;;7.85;;
35110;SDS011;21290;50.158;8.658;2023-08-20T03:04:30;9.90;;;7.40;;
35110;SDS011;21290;50.158;8.658;2023-08-20T03:06:57;10.68;;;7.65;;
35110;SDS011;21290;50.158;8.658;2023-08-20T03:09:24;11.15;;;7.25;;
35110;SDS011;21290;50.158;8.658;2023-08-20T03:11:50;9.50;;;7.40;;
35110;SDS011;21290;50.158;8.658;2023-08-20T03:14:17;12.73;;;7.78;;
35110;SDS011;21290;50.158;8.658;2023-08-20T03:16:44;11.25;;;7.40;;
35110;SDS011;21290;50.158;8.658;2023-08-20T03:19:10;11.32;;;7.55;;
35110;SDS011;21290;50.158;8.658;2023-08-20T03:21:37;13.88;;;7.63;;
35110;SDS011;21290;50.158;8.658;2023-08-20T03:24:04;9.18;;;7.68;;
35110;SDS011;21290;50.158;8.658;2023-08-20T03:26:31;10.68;;;7.93;;
35110;SDS011;21290;50.158;8.658;2023-08-20T03:28:57;11.02;;;8.32;;
35110;SDS011;21290;50.158;8.658;2023-08-20T03:31:25;13.13;;;8.77;;
35110;SDS011;21290;50.158;8.658;2023-08-20T03:33:51;13.55;;;9.10;;
35110;SDS011;21290;50.158;8.658;2023-08-20T03:36:18;13.57;;;9.18;;
35110;SDS011;21290;50.158;8.658;2023-08-20T03:38:44;14.15;;;9.10;;
35110;SDS011;21290;50.158;8.658;2023-08-20T03:41:11;10.43;;;8.45;;
35110;SDS011;21290;50.158;8.658;2023-08-20T03:43:38;16.92;;;9.25;;
35110;SDS011;21290;50.158;8.658;2023-08-20T03:46:04;13.18;;;9.50;;
35110;SDS011;21290;50.158;8.658;2023-08-20T03:48:31;13.63;;;9.68;;
35110;SDS011;21290;50.158;8.658;2023-08-20T03:50:58;13.27;;;9.60;;
35110;SDS011;21290;50.158;8.658;2023-08-20T03:53:24;11.85;;;9.60;;
35110;SDS011;21290;50.158;8.658;2023-08-20T03:55:51;13.48;;;10.10;;
35110;SDS011;21290;50.158;8.658;2023-08-20T03:58:18;16.38;;;10.27;;
35110;SDS011;21290;50.158;8.658;2023-08-20T04:00:44;15.57;;;10.07;;
35110;SDS011;21290;50.158;8.658;2023-08-20T04:03:11;11.98;;;10.02;;
35110;SDS011;21290;50.158;8.658;2023-08-20T04:05:38;12.88;;;9.68;;
35110;SDS011;21290;50.158;8.658;2023-08-20T04:08:05;12.05;;;9.60;;
35110;SDS011;21290;50.158;8.658;2023-08-20T04:10:32;13.63;;;9.70;;
35110;SDS011;21290;50.158;8.658;2023-08-20T04:12:59;10.80;;;9.70;;
35110;SDS011;21290;50.158;8.658;2023-08-20T04:15:26;10.45;;;9.35;;
35110;SDS011;21290;50.158;8.658;2023-08-20T04:17:53;13.38;;;9.55;;
35110;SDS011;21290;50.158;8.658;2023-08-20T04:20:20;12.73;;;9.13;;
35110;SDS011;21290;50.158;8.658;2023-08-20T04:22:46;17.38;;;11.15;;
35110;SDS011;21290;50.158;8.658;2023-08-20T04:25:13;17.67;;;10.82;;
35110;SDS011;21290;50.158;8.658;2023-08-20T04:27:40;15.90;;;10.60;;
35110;SDS011;21290;50.158;8.658;2023-08-20T04:30:07;17.02;;;10.43;;
35110;SDS011;21290;50.158;8.658;2023-08-20T04:32:34;14.23;;;10.65;;
35110;SDS011;21290;50.158;8.658;2023-08-20T04:35:01;15.80;;;10.18;;
35110;SDS011;21290;50.158;8.658;2023-08-20T04:37:28;11.77;;;10.30;;
35110;SDS011;21290;50.158;8.658;2023-08-20T04:39:55;13.18;;;9.75;;
35110;SDS011;21290;50.158;8.658;2023-08-20T04:42:21;12.13;;;9.70;;
35110;SDS011;21290;50.158;8.658;2023-08-20T04:44:48;13.43;;;9.10;;
35110;SDS011;21290;50.158;8.658;2023-08-20T04:47:14;11.73;;;9.88;;
35110;SDS011;21290;50.158;8.658;2023-08-20T04:49:41;11.30;;;9.73;;
35110;SDS011;21290;50.158;8.658;2023-08-20T04:52:08;12.95;;;9.45;;
35110;SDS011;21290;50.158;8.658;2023-08-20T04:54:34;12.50;;;9.27;;
35110;SDS011;21290;50.158;8.658;2023-08-20T04:57:01;14.73;;;10.10;;
35110;SDS011;21290;50.158;8.658;2023-08-20T04:59:28;14.55;;;9.70;;
35110;SDS011;21290;50.158;8.658;2023-08-20T05:01:55;12.00;;;9.13;;
35110;SDS011;21290;50.158;8.658;2023-08-20T05:04:22;17.02;;;11.90;;
35110;SDS011;21290;50.158;8.658;2023-08-20T05:06:48;13.05;;;10.90;;
35110;SDS011;21290;50.158;8.658;2023-08-20T05:09:15;14.05;;;9.13;;
35110;SDS011;21290;50.158;8.658;2023-08-20T05:11:42;12.57;;;8.23;;
35110;SDS011;21290;50.158;8.658;2023-08-20T05:14:09;10.02;;;8.35;;
35110;SDS011;21290;50.158;8.658;2023-08-20T05:16:35;14.88;;;8.32;;
35110;SDS011;21290;50.158;8.658;2023-08-20T05:19:02;12.80;;;9.07;;
35110;SDS011;21290;50.158;8.658;2023-08-20T05:21:29;14.07;;;8.93;;
35110;SDS011;21290;50.158;8.658;2023-08-20T05:23:55;12.68;;;8.50;;
35110;SDS011;21290;50.158;8.658;2023-08-20T05:26:22;12.13;;;9.15;;
35110;SDS011;21290;50.158;8.658;2023-08-20T05:28:49;12.30;;;9.77;;
35110;SDS011;21290;50.158;8.658;2023-08-20T05:31:15;17.30;;;9.10;;
35110;SDS011;21290;50.158;8.658;2023-08-20T05:33:42;13.35;;;9.15;;
35110;SDS011;21290;50.158;8.658;2023-08-20T05:36:09;12.77;;;9.25;;
35110;SDS011;21290;50.158;8.658;2023-08-20T05:38:35;14.13;;;9.45;;
35110;SDS011;21290;50.158;8.658;2023-08-20T05:41:02;13.20;;;9.05;;
35110;SDS011;21290;50.158;8.658;2023-08-20T05:43:28;10.98;;;8.07;;
35110;SDS011;21290;50.158;8.658;2023-08-20T05:45:55;12.07;;;8.93;;
35110;SDS011;21290;50.158;8.658;2023-08-20T05:48:22;13.20;;;8.43;;
35110;SDS011;21290;50.158;8.658;2023-08-20T05:50:48;12.52;;;8.20;;
35110;SDS011;21290;50.158;8.658;2023-08-20T05:53:15;18.90;;;8.45;;
35110;SDS011;21290;50.158;8.658;2023-08-20T05:55:41;9.70;;;7.38;;
35110;SDS011;21290;50.158;8.658;2023-08-20T05:58:08;12.63;;;7.43;;
35110;SDS011;21290;50.158;8.658;2023-08-20T06:00:35;9.35;;;7.88;;
35110;SDS011;21290;50.158;8.658;2023-08-20T06:03:02;11.52;;;8.15;;
35110;SDS011;21290;50.158;8.658;2023-08-20T06:05:29;12.15;;;7.97;;
35110;SDS011;21290;50.158;8.658;2023-08-20T06:07:56;10.23;;;8.00;;
35110;SDS011;21290;50.158;8.658;2023-08-20T06:10:22;12.77;;;8.43;;
35110;SDS011;21290;50.158;8.658;2023-08-20T06:12:49;13.27;;;8.38;;
35110;SDS011;21290;50.158;8.658;2023-08-20T06:15:15;9.88;;;7.85;;
35110;SDS011;21290;50.158;8.658;2023-08-20T06:17:42;17.08;;;7.65;;
35110;SDS011;21290;50.158;8.658;2023-08-20T06:20:09;12.57;;;8.52;;
35110;SDS011;21290;50.158;8.658;2023-08-20T06:22:37;24.67;;;11.35;;
35110;SDS011;21290;50.158;8.658;2023-08-20T06:25:04;14.10;;;8.07;;
35110;SDS011;21290;50.158;8.658;2023-08-20T06:27:31;10.07;;;7.18;;
35110;SDS011;21290;50.158;8.658;2023-08-20T06:29:59;12.45;;;6.38;;
35110;SDS011;21290;50.158;8.658;2023-08-20T06:32:26;8.05;;;6.30;;
35110;SDS011;21290;50.158;8.658;2023-08-20T06:34:53;9.85;;;6.10;;
35110;SDS011;21290;50.158;8.658;2023-08-20T06:37:20;11.35;;;6.65;;
35110;SDS011;21290;50.158;8.658;2023-08-20T06:39:46;7.78;;;6.20;;
35110;SDS011;21290;50.158;8.658;2023-08-20T06:42:13;11.23;;;7.15;;
35110;SDS011;21290;50.158;8.658;2023-08-20T06:44:39;9.73;;;6.28;;
35110;SDS011;21290;50.158;8.658;2023-08-20T06:47:06;11.85;;;6.30;;
35110;SDS011;21290;50.158;8.658;2023-08-20T06:49:33;11.35;;;6.30;;
35110;SDS011;21290;50.158;8.658;2023-08-20T06:51:59;10.02;;;6.22;;
35110;SDS011;21290;50.158;8.658;2023-08-20T06:54:26;12.38;;;6.53;;
35110;SDS011;21290;50.158;8.658;2023-08-20T06:56:52;8.75;;;6.43;;
35110;SDS011;21290;50.158;8.658;2023-08-20T06:59:19;7.03;;;6.07;;
35110;SDS011;21290;50.158;8.658;2023-08-20T07:01:46;7.65;;;6.00;;
35110;SDS011;21290;50.158;8.658;2023-08-20T07:04:12;9.23;;;6.47;;
35110;SDS011;21290;50.158;8.658;2023-08-20T07:06:39;9.18;;;5.90;;
35110;SDS011;21290;50.158;8.658;2023-08-20T07:09:06;7.80;;;5.50;;
35110;SDS011;21290;50.158;8.658;2023-08-20T07:11:33;6.40;;;5.80;;
35110;SDS011;21290;50.158;8.658;2023-08-20T07:14:00;8.50;;;6.05;;
35110;SDS011;21290;50.158;8.658;2023-08-20T07:16:26;11.68;;;6.15;;
35110;SDS011;21290;50.158;8.658;2023-08-20T07:18:53;10.30;;;5.97;;
35110;SDS011;21290;50.158;8.658;2023-08-20T07:21:20;10.15;;;6.00;;
35110;SDS011;21290;50.158;8.658;2023-08-20T07:23:46;8.15;;;5.85;;
35110;SDS011;21290;50.158;8.658;2023-08-20T07:26:13;10.32;;;6.25;;
35110;SDS011;21290;50.158;8.658;2023-08-20T07:28:40;8.55;;;6.00;;
35110;SDS011;21290;50.158;8.658;2023-08-20T07:31:27;10.35;;;6.45;;
35110;SDS011;21290;50.158;8.658;2023-08-20T07:33:58;22.30;;;9.00;;
35110;SDS011;21290;50.158;8.658;2023-08-20T07:36:30;9.00;;;6.10;;
35110;SDS011;21290;50.158;8.658;2023-08-20T07:38:57;9.15;;;6.45;;
35110;SDS011;21290;50.158;8.658;2023-08-20T07:41:23;10.73;;;6.10;;
35110;SDS011;21290;50.158;8.658;2023-08-20T07:43:50;10.65;;;6.47;;
35110;SDS011;21290;50.158;8.658;2023-08-20T07:46:17;10.43;;;6.05;;
35110;SDS011;21290;50.158;8.658;2023-08-20T07:48:44;11.63;;;5.88;;
35110;SDS011;21290;50.158;8.658;2023-08-20T07:51:10;11.52;;;6.10;;
35110;SDS011;21290;50.158;8.658;2023-08-20T07:53:37;9.55;;;5.88;;
35110;SDS011;21290;50.158;8.658;2023-08-20T07:56:04;8.85;;;5.72;;
35110;SDS011;21290;50.158;8.658;2023-08-20T07:58:30;8.65;;;6.00;;
35110;SDS011;21290;50.158;8.658;2023-08-20T08:00:57;7.55;;;6.35;;
35110;SDS011;21290;50.158;8.658;2023-08-20T08:03:25;10.23;;;6.35;;
35110;SDS011;21290;50.158;8.658;2023-08-20T08:05:53;9.02;;;6.40;;
35110;SDS011;21290;50.158;8.658;2023-08-20T08:08:21;9.10;;;6.07;;
35110;SDS011;21290;50.158;8.658;2023-08-20T08:10:48;12.95;;;6.90;;
35110;SDS011;21290;50.158;8.658;2023-08-20T08:13:16;7.22;;;6.05;;
35110;SDS011;21290;50.158;8.658;2023-08-20T08:15:45;11.55;;;7.30;;
35110;SDS011;21290;50.158;8.658;2023-08-20T08:18:12;8.25;;;6.50;;
35110;SDS011;21290;50.158;8.658;2023-08-20T08:20:39;8.32;;;6.53;;
35110;SDS011;21290;50.158;8.658;2023-08-20T08:23:05;10.57;;;6.50;;
35110;SDS011;21290;50.158;8.658;2023-08-20T08:25:32;8.18;;;6.50;;
35110;SDS011;21290;50.158;8.658;2023-08-20T08:27:59;10.02;;;6.47;;
35110;SDS011;21290;50.158;8.658;2023-08-20T08:30:26;11.18;;;7.32;;
35110;SDS011;21290;50.158;8.658;2023-08-20T08:32:55;9.55;;;6.20;;
35110;SDS011;21290;50.158;8.658;2023-08-20T08:35:22;11.93;;;6.05;;
35110;SDS011;21290;50.158;8.658;2023-08-20T08:37:49;10.52;;;6.30;;
35110;SDS011;21290;50.158;8.658;2023-08-20T08:40:15;9.18;;;5.93;;
35110;SDS011;21290;50.158;8.658;2023-08-20T08:42:42;13.00;;;7.60;;
35110;SDS011;21290;50.158;8.658;2023-08-20T08:45:12;7.80;;;5.22;;
35110;SDS011;21290;50.158;8.658;2023-08-20T08:47:39;6.55;;;4.95;;
35110;SDS011;21290;50.158;8.658;2023-08-20T08:50:06;10.93;;;5.45;;
35110;SDS011;21290;50.158;8.658;2023-08-20T08:52:34;6.53;;;5.05;;
35110;SDS011;21290;50.158;8.658;2023-08-20T08:55:03;12.68;;;5.25;;
35110;SDS011;21290;50.158;8.658;2023-08-20T08:57:31;7.28;;;5.03;;
35110;SDS011;21290;50.158;8.658;2023-08-20T08:59:58;7.67;;;5.17;;
35110;SDS011;21290;50.158;8.658;2023-08-20T09:02:25;10.75;;;5.63;;
35110;SDS011;21290;50.158;8.658;2023-08-20T09:04:52;7.32;;;5.20;;
35110;SDS011;21290;50.158;8.658;2023-08-20T09:07:19;8.55;;;5.38;;
35110;SDS011;21290;50.158;8.658;2023-08-20T09:09:45;9.60;;;5.57;;
35110;SDS011;21290;50.158;8.658;2023-08-20T09:12:15;11.50;;;5.13;;
35110;SDS011;21290;50.158;8.658;2023-08-20T09:14:47;8.32;;;4.95;;
35110;SDS011;21290;50.158;8.658;2023-08-20T09:17:16;6.93;;;4.97;;
35110;SDS011;21290;50.158;8.658;2023-08-20T09:19:43;6.40;;;4.97;;
35110;SDS011;21290;50.158;8.658;2023-08-20T09:22:12;13.05;;;5.03;;
35110;SDS011;21290;50.158;8.658;2023-08-20T09:27:12;8.05;;;5.50;;
35110;SDS011;21290;50.158;8.658;2023-08-20T09:29:46;10.98;;;5.00;;
35110;SDS011;21290;50.158;8.658;2023-08-20T09:32:20;9.27;;;5.40;;
35110;SDS011;21290;50.158;8.658;2023-08-20T09:34:55;8.23;;;4.80;;
35110;SDS011;21290;50.158;8.658;2023-08-20T09:37:22;5.93;;;5.10;;
35110;SDS011;21290;50.158;8.658;2023-08-20T09:39:50;7.47;;;5.15;;
35110;SDS011;21290;50.158;8.658;2023-08-20T09:42:17;8.07;;;5.03;;
35110;SDS011;21290;50.158;8.658;2023-08-20T09:44:45;6.10;;;4.60;;
35110;SDS011;21290;50.158;8.658;2023-08-20T09:47:16;7.28;;;4.80;;
35110;SDS011;21290;50.158;8.658;2023-08-20T09:49:45;6.10;;;4.78;;
35110;SDS011;21290;50.158;8.658;2023-08-20T09:52:16;5.72;;;4.60;;
35110;SDS011;21290;50.158;8.658;2023-08-20T09:57:50;7.80;;;5.10;;
35110;SDS011;21290;50.158;8.658;2023-08-20T10:00:18;7.10;;;4.65;;
35110;SDS011;21290;50.158;8.658;2023-08-20T10:02:46;8.25;;;4.78;;
35110;SDS011;21290;50.158;8.658;2023-08-20T10:05:14;11.68;;;4.50;;
35110;SDS011;21290;50.158;8.658;2023-08-20T10:07:42;8.35;;;4.68;;
35110;SDS011;21290;50.158;8.658;2023-08-20T10:10:09;6.13;;;4.60;;
35110;SDS011;21290;50.158;8.658;2023-08-20T10:12:40;8.75;;;4.93;;
35110;SDS011;21290;50.158;8.658;2023-08-20T10:15:08;7.07;;;4.30;;
35110;SDS011;21290;50.158;8.658;2023-08-20T10:17:37;8.40;;;4.18;;
35110;SDS011;21290;50.158;8.658;2023-08-20T10:20:06;6.00;;;4.30;;
35110;SDS011;21290;50.158;8.658;2023-08-20T10:22:40;8.35;;;4.18;;
35110;SDS011;21290;50.158;8.658;2023-08-20T10:25:09;5.20;;;3.78;;
35110;SDS011;21290;50.158;8.658;2023-08-20T10:27:40;7.22;;;4.00;;
35110;SDS011;21290;50.158;8.658;2023-08-20T10:30:11;7.10;;;3.85;;
35110;SDS011;21290;50.158;8.658;2023-08-20T10:32:50;5.10;;;4.28;;
35110;SDS011;21290;50.158;8.658;2023-08-20T10:35:20;5.57;;;4.30;;
35110;SDS011;21290;50.158;8.658;2023-08-20T10:38:06;7.18;;;4.10;;
35110;SDS011;21290;50.158;8.658;2023-08-20T10:40:47;5.63;;;3.83;;
35110;SDS011;21290;50.158;8.658;2023-08-20T10:43:30;7.00;;;4.00;;
35110;SDS011;21290;50.158;8.658;2023-08-20T10:46:03;4.63;;;3.30;;
35110;SDS011;21290;50.158;8.658;2023-08-20T10:48:36;5.82;;;3.50;;
35110;SDS011;21290;50.158;8.658;2023-08-20T10:51:14;7.28;;;3.63;;
35110;SDS011;21290;50.158;8.658;2023-08-20T10:54:01;5.38;;;3.40;;
35110;SDS011;21290;50.158;8.658;2023-08-20T10:59:34;5.93;;;3.10;;
35110;SDS011;21290;50.158;8.658;2023-08-20T11:02:07;3.42;;;2.88;;
35110;SDS011;21290;50.158;8.658;2023-08-20T11:04:40;7.13;;;3.60;;
35110;SDS011;21290;50.158;8.658;2023-08-20T11:07:07;5.22;;;3.45;;
35110;SDS011;21290;50.158;8.658;2023-08-20T11:09:34;5.05;;;3.25;;
35110;SDS011;21290;50.158;8.658;2023-08-20T11:12:01;3.50;;;2.60;;
35110;SDS011;21290;50.158;8.658;2023-08-20T11:14:28;3.87;;;2.70;;
35110;SDS011;21290;50.158;8.658;2023-08-20T11:16:54;4.20;;;3.20;;
35110;SDS011;21290;50.158;8.658;2023-08-20T11:19:22;6.68;;;2.92;;
35110;SDS011;21290;50.158;8.658;2023-08-20T11:21:50;4.28;;;2.85;;
35110;SDS011;21290;50.158;8.658;2023-08-20T11:24:17;6.45;;;3.20;;
35110;SDS011;21290;50.158;8.658;2023-08-20T11:26:46;6.50;;;3.15;;
35110;SDS011;21290;50.158;8.658;2023-08-20T11:29:14;7.07;;;2.92;;
35110;SDS011;21290;50.158;8.658;2023-08-20T11:31:46;3.72;;;2.70;;
35110;SDS011;21290;50.158;8.658;2023-08-20T11:34:13;5.85;;;3.13;;
35110;SDS011;21290;50.158;8.658;2023-08-20T11:36:40;6.35;;;3.40;;
35110;SDS011;21290;50.158;8.658;2023-08-20T11:39:07;7.13;;;2.77;;
35110;SDS011;21290;50.158;8.658;2023-08-20T11:44:04;4.47;;;2.80;;
35110;SDS011;21290;50.158;8.658;2023-08-20T11:46:31;4.75;;;2.85;;
35110;SDS011;21290;50.158;8.658;2023-08-20T11:49:08;6.75;;;3.10;;
35110;SDS011;21290;50.158;8.658;2023-08-20T11:51:40;5.72;;;3.17;;
35110;SDS011;21290;50.158;8.658;2023-08-20T11:54:14;4.85;;;2.85;;
35110;SDS011;21290;50.158;8.658;2023-08-20T11:56:46;3.78;;;2.50;;
35110;SDS011;21290;50.158;8.658;2023-08-20T11:59:16;5.80;;;2.63;;
35110;SDS011;21290;50.158;8.658;2023-08-20T12:01:58;5.72;;;2.92;;
35110;SDS011;21290;50.158;8.658;2023-08-20T12:04:27;6.60;;;2.92;;
35110;SDS011;21290;50.158;8.658;2023-08-20T12:07:05;5.47;;;3.53;;
35110;SDS011;21290;50.158;8.658;2023-08-20T12:09:35;5.32;;;2.78;;
35110;SDS011;21290;50.158;8.658;2023-08-20T12:12:02;8.73;;;2.85;;
35110;SDS011;21290;50.158;8.658;2023-08-20T12:14:31;4.40;;;3.00;;
35110;SDS011;21290;50.158;8.658;2023-08-20T12:16:58;5.00;;;3.40;;
35110;SDS011;21290;50.158;8.658;2023-08-20T12:19:25;5.07;;;3.10;;
35110;SDS011;21290;50.158;8.658;2023-08-20T12:21:51;6.30;;;4.60;;
35110;SDS011;21290;50.158;8.658;2023-08-20T12:24:18;7.85;;;5.40;;
35110;SDS011;21290;50.158;8.658;2023-08-20T12:26:45;7.80;;;5.10;;
35110;SDS011;21290;50.158;8.658;2023-08-20T12:29:12;5.80;;;3.35;;
35110;SDS011;21290;50.158;8.658;2023-08-20T12:31:39;6.30;;;3.80;;
35110;SDS011;21290;50.158;8.658;2023-08-20T12:34:06;5.38;;;3.28;;
35110;SDS011;21290;50.158;8.658;2023-08-20T12:36:34;5.80;;;3.10;;
35110;SDS011;21290;50.158;8.658;2023-08-20T12:39:01;5.68;;;3.33;;
35110;SDS011;21290;50.158;8.658;2023-08-20T12:43:56;7.80;;;3.90;;
35110;SDS011;21290;50.158;8.658;2023-08-20T12:46:23;5.03;;;3.30;;
35110;SDS011;21290;50.158;8.658;2023-08-20T12:48:50;5.30;;;3.67;;
35110;SDS011;21290;50.158;8.658;2023-08-20T12:51:16;5.03;;;3.08;;
35110;SDS011;21290;50.158;8.658;2023-08-20T12:53:44;8.43;;;3.47;;
35110;SDS011;21290;50.158;8.658;2023-08-20T12:56:11;4.55;;;3.55;;
35110;SDS011;21290;50.158;8.658;2023-08-20T12:58:38;6.10;;;4.30;;
35110;SDS011;21290;50.158;8.658;2023-08-20T13:01:05;7.63;;;3.60;;
35110;SDS011;21290;50.158;8.658;2023-08-20T13:03:32;6.32;;;3.33;;
35110;SDS011;21290;50.158;8.658;2023-08-20T13:05:59;5.13;;;3.63;;
35110;SDS011;21290;50.158;8.658;2023-08-20T13:08:26;5.38;;;3.30;;
35110;SDS011;21290;50.158;8.658;2023-08-20T13:13:22;3.67;;;3.35;;
35110;SDS011;21290;50.158;8.658;2023-08-20T13:15:50;8.52;;;3.13;;
35110;SDS011;21290;50.158;8.658;2023-08-20T13:18:18;5.40;;;4.10;;
35110;SDS011;21290;50.158;8.658;2023-08-20T13:20:45;12.82;;;4.18;;
35110;SDS011;21290;50.158;8.658;2023-08-20T13:23:12;7.72;;;4.20;;
35110;SDS011;21290;50.158;8.658;2023-08-20T13:25:39;5.18;;;3.90;;
35110;SDS011;21290;50.158;8.658;2023-08-20T13:28:05;6.75;;;3.70;;
35110;SDS011;21290;50.158;8.658;2023-08-20T13:30:32;5.15;;;3.75;;
35110;SDS011;21290;50.158;8.658;2023-08-20T13:32:59;6.75;;;3.45;;
35110;SDS011;21290;50.158;8.658;2023-08-20T13:35:27;8.05;;;3.90;;
35110;SDS011;21290;50.158;8.658;2023-08-20T13:37:54;5.65;;;3.45;;
35110;SDS011;21290;50.158;8.658;2023-08-20T13:40:20;6.13;;;3.67;;
35110;SDS011;21290;50.158;8.658;2023-08-20T13:42:47;5.38;;;3.58;;
35110;SDS011;21290;50.158;8.658;2023-08-20T13:45:14;7.20;;;3.95;;
35110;SDS011;21290;50.158;8.658;2023-08-20T13:47:41;5.38;;;3.17;;
35110;SDS011;21290;50.158;8.658;2023-08-20T13:50:11;6.47;;;3.85;;
35110;SDS011;21290;50.158;8.658;2023-08-20T13:52:37;6.72;;;3.70;;
35110;SDS011;21290;50.158;8.658;2023-08-20T13:55:05;5.70;;;3.58;;
35110;SDS011;21290;50.158;8.658;2023-08-20T13:57:32;4.25;;;3.30;;
35110;SDS011;21290;50.158;8.658;2023-08-20T13:59:58;5.32;;;3.28;;
35110;SDS011;21290;50.158;8.658;2023-08-20T14:02:25;5.55;;;3.55;;
35110;SDS011;21290;50.158;8.658;2023-08-20T14:04:51;5.00;;;3.33;;
35110;SDS011;21290;50.158;8.658;2023-08-20T14:07:18;7.03;;;3.72;;
35110;SDS011;21290;50.158;8.658;2023-08-20T14:09:45;6.65;;;3.90;;
35110;SDS011;21290;50.158;8.658;2023-08-20T14:12:11;5.93;;;4.00;;
35110;SDS011;21290;50.158;8.658;2023-08-20T14:14:38;7.22;;;4.20;;
35110;SDS011;21290;50.158;8.658;2023-08-20T14:17:04;7.60;;;3.97;;
35110;SDS011;21290;50.158;8.658;2023-08-20T14:19:31;7.10;;;4.25;;
35110;SDS011;21290;50.158;8.658;2023-08-20T14:21:58;5.22;;;3.70;;
35110;SDS011;21290;50.158;8.658;2023-08-20T14:24:24;9.00;;;4.20;;
35110;SDS011;21290;50.158;8.658;2023-08-20T14:26:51;5.78;;;4.03;;
35110;SDS011;21290;50.158;8.658;2023-08-20T14:29:17;7.80;;;4.20;;
35110;SDS011;21290;50.158;8.658;2023-08-20T14:31:44;6.63;;;4.45;;
35110;SDS011;21290;50.158;8.658;2023-08-20T14:34:11;5.45;;;4.05;;
35110;SDS011;21290;50.158;8.658;2023-08-20T14:36:37;5.38;;;3.95;;
35110;SDS011;21290;50.158;8.658;2023-08-20T14:39:04;4.00;;;3.53;;
35110;SDS011;21290;50.158;8.658;2023-08-20T14:41:32;14.05;;;3.38;;
35110;SDS011;21290;50.158;8.658;2023-08-20T14:43:59;13.10;;;4.28;;
35110;SDS011;21290;50.158;8.658;2023-08-20T14:46:25;7.68;;;3.83;;
35110;SDS011;21290;50.158;8.658;2023-08-20T14:48:52;7.28;;;3.85;;
35110;SDS011;21290;50.158;8.658;2023-08-20T14:51:21;6.03;;;3.90;;
35110;SDS011;21290;50.158;8.658;2023-08-20T14:53:48;5.75;;;3.65;;
35110;SDS011;21290;50.158;8.658;2023-08-20T14:56:15;5.28;;;3.80;;
35110;SDS011;21290;50.158;8.658;2023-08-20T14:58:41;9.18;;;4.65;;
35110;SDS011;21290;50.158;8.658;2023-08-20T15:01:08;7.68;;;3.90;;
35110;SDS011;21290;50.158;8.658;2023-08-20T15:03:34;5.45;;;3.75;;
35110;SDS011;21290;50.158;8.658;2023-08-20T15:06:01;5.60;;;4.00;;